Time;durP1;ratioP1;P1;durP2;ratioP2;P2;SDS_P1;SDS_P2;PMS_P1;PMS_P2;Temp;Humidity;BMP_temperature;BMP_pressure;BME280_temperature;BME280_humidity;BME280_pressure;Samples;Min_cycle;Max_cycle;Signal;HPM_P1;HPM_P2
2022/02/22 00:02:14;;;;;;;35.72;6.63;;;;;;;6.22;100.00;101652.06;5264409;28;20028;-74
2022/02/22 00:04:45;;;;;;;33.97;7.20;;;;;;;6.21;100.00;101666.00;5263897;28;20044;-73
2022/02/22 00:07:16;;;;;;;30.35;6.88;;;;;;;6.18;100.00;101668.75;5266022;28;20466;-73
2022/02/22 00:09:47;;;;;;;26.50;6.38;;;;;;;6.13;100.00;101668.16;5266262;28;20053;-73
2022/02/22 00:12:19;;;;;;;27.42;6.10;;;;;;;6.08;100.00;101671.00;5264112;28;20036;-74
2022/02/22 00:14:50;;;;;;;32.60;6.47;;;;;;;6.08;100.00;101678.81;5265138;28;20029;-73
2022/02/22 00:17:21;;;;;;;40.40;7.65;;;;;;;6.03;100.00;101687.78;5262791;28;20047;-74
2022/02/22 00:19:53;;;;;;;29.98;6.78;;;;;;;5.99;100.00;101691.47;5265137;28;20025;-74
2022/02/22 00:22:24;;;;;;;34.95;7.03;;;;;;;5.97;100.00;101682.88;5262107;28;20460;-74
2022/02/22 00:24:55;;;;;;;30.65;6.45;;;;;;;5.95;100.00;101682.16;5264331;28;20031;-73
2022/02/22 00:27:26;;;;;;;32.22;6.53;;;;;;;5.96;100.00;101676.84;5265588;28;20493;-74
2022/02/22 00:29:58;;;;;;;28.92;6.00;;;;;;;5.89;100.00;101672.84;5260163;28;20028;-74
2022/02/22 00:32:29;;;;;;;37.40;7.22;;;;;;;5.91;100.00;101680.56;5263409;28;20049;-73
2022/02/22 00:35:00;;;;;;;29.98;6.03;;;;;;;5.88;100.00;101681.59;5265799;28;20028;-73
2022/02/22 00:37:31;;;;;;;34.20;6.05;;;;;;;5.91;100.00;101702.22;5263252;28;20039;-74
2022/02/22 00:40:04;;;;;;;33.40;6.15;;;;;;;5.83;100.00;101702.63;5260971;28;20041;-75
2022/02/22 00:42:37;;;;;;;30.55;5.95;;;;;;;5.79;100.00;101716.69;5264421;28;20124;-74
2022/02/22 00:45:09;;;;;;;31.25;6.57;;;;;;;5.73;100.00;101717.00;5262939;28;20021;-74
2022/02/22 00:47:40;;;;;;;27.15;5.28;;;;;;;5.75;100.00;101724.72;5264617;28;20104;-74
2022/02/22 00:50:12;;;;;;;31.90;6.10;;;;;;;5.68;100.00;101718.97;5264569;28;20565;-73
2022/02/22 00:52:43;;;;;;;28.00;6.05;;;;;;;5.68;100.00;101720.75;5266338;28;20021;-74
2022/02/22 00:55:14;;;;;;;33.50;6.68;;;;;;;5.64;100.00;101729.63;5263974;28;20474;-74
2022/02/22 00:57:46;;;;;;;37.58;6.65;;;;;;;5.61;100.00;101738.44;5267360;28;20486;-73
2022/02/22 01:00:18;;;;;;;28.25;5.57;;;;;;;5.56;100.00;101746.44;5266908;28;20036;-74
2022/02/22 01:02:49;;;;;;;24.02;5.80;;;;;;;5.58;100.00;101746.38;5264939;28;20745;-72
2022/02/22 01:05:21;;;;;;;24.70;5.13;;;;;;;5.57;100.00;101755.09;5265686;28;20439;-74
2022/02/22 01:07:52;;;;;;;37.55;6.82;;;;;;;5.54;100.00;101753.47;5264885;28;20482;-73
2022/02/22 01:10:23;;;;;;;33.55;6.55;;;;;;;5.52;100.00;101752.69;5265457;28;20135;-73
2022/02/22 01:12:55;;;;;;;33.33;5.50;;;;;;;5.47;100.00;101739.09;5263481;28;20025;-73
2022/02/22 01:15:26;;;;;;;29.35;5.75;;;;;;;5.47;100.00;101754.69;5263601;28;20039;-74
2022/02/22 01:17:58;;;;;;;29.88;7.15;;;;;;;5.47;100.00;101746.88;5262794;28;20914;-73
2022/02/22 01:20:29;;;;;;;33.00;5.30;;;;;;;5.43;100.00;101745.38;5264847;28;20033;-73
2022/02/22 01:23:00;;;;;;;37.17;7.28;;;;;;;5.43;100.00;101747.97;5266015;28;20021;-73
2022/02/22 01:25:32;;;;;;;32.17;6.78;;;;;;;5.38;100.00;101749.94;5265567;28;20032;-74
2022/02/22 01:28:03;;;;;;;30.13;5.82;;;;;;;5.36;100.00;101749.16;5262755;28;20049;-74
2022/02/22 01:30:35;;;;;;;30.77;5.50;;;;;;;5.33;100.00;101752.75;5265712;28;20058;-74
2022/02/22 01:33:06;;;;;;;40.92;7.78;;;;;;;5.31;100.00;101749.41;5265781;28;20545;-73
2022/02/22 01:35:39;;;;;;;32.65;6.43;;;;;;;5.34;100.00;101753.59;5263618;28;20025;-73
2022/02/22 01:38:10;;;;;;;33.75;6.72;;;;;;;5.27;100.00;101750.47;5260217;28;20554;-74
2022/02/22 01:40:41;;;;;;;35.28;7.38;;;;;;;5.30;100.00;101741.66;5262902;28;20028;-74
2022/02/22 01:43:13;;;;;;;35.50;6.78;;;;;;;5.30;100.00;101750.31;5260723;28;20029;-74
2022/02/22 01:45:46;;;;;;;28.85;6.72;;;;;;;5.32;100.00;101747.63;5267829;28;20359;-74
2022/02/22 01:48:17;;;;;;;30.90;6.10;;;;;;;5.34;100.00;101751.00;5260978;28;20024;-74
2022/02/22 01:50:48;;;;;;;29.48;7.03;;;;;;;5.32;100.00;101743.28;5264117;28;20035;-74
2022/02/22 01:53:20;;;;;;;29.25;6.82;;;;;;;5.29;100.00;101747.78;5263218;28;20032;-74
2022/02/22 01:55:51;;;;;;;34.13;6.80;;;;;;;5.24;100.00;101734.19;5257728;28;20028;-74
2022/02/22 01:58:22;;;;;;;32.20;6.68;;;;;;;5.25;100.00;101746.25;5262499;28;20036;-74
2022/02/22 02:00:54;;;;;;;28.52;7.25;;;;;;;5.22;100.00;101754.19;5262953;28;20130;-73
2022/02/22 02:03:26;;;;;;;28.58;6.22;;;;;;;5.19;100.00;101760.38;5266971;28;20428;-74
2022/02/22 02:05:57;;;;;;;31.50;6.25;;;;;;;5.19;100.00;101764.72;5270585;28;20116;-74
2022/02/22 02:08:29;;;;;;;29.50;6.40;;;;;;;5.17;100.00;101764.81;5268428;28;20056;-74
2022/02/22 02:11:00;;;;;;;41.08;6.13;;;;;;;5.15;100.00;101763.19;5267732;28;20044;-73
2022/02/22 02:13:32;;;;;;;35.45;6.38;;;;;;;5.13;100.00;101764.09;5265908;28;20024;-73
2022/02/22 02:16:04;;;;;;;33.45;5.93;;;;;;;5.18;100.00;101755.25;5268245;28;20036;-73
2022/02/22 02:18:36;;;;;;;29.58;6.25;;;;;;;5.13;100.00;101748.50;5271341;28;20039;-73
2022/02/22 02:21:07;;;;;;;35.67;6.07;;;;;;;5.08;100.00;101752.25;5268755;28;20402;-73
2022/02/22 02:23:38;;;;;;;29.85;5.65;;;;;;;5.07;100.00;101746.19;5266862;28;20024;-73
2022/02/22 02:26:11;;;;;;;35.55;8.07;;;;;;;5.08;100.00;101755.69;5269905;28;20021;-74
2022/02/22 02:28:42;;;;;;;32.33;5.38;;;;;;;5.05;100.00;101757.59;5267294;28;20079;-73
2022/02/22 02:31:13;;;;;;;36.33;6.10;;;;;;;5.03;100.00;101752.44;5268558;28;20474;-73
2022/02/22 02:33:44;;;;;;;30.38;6.32;;;;;;;4.97;100.00;101760.56;5270017;28;20040;-73
2022/02/22 02:36:16;;;;;;;33.17;6.80;;;;;;;4.95;100.00;101774.50;5270989;28;20028;-74
2022/02/22 02:38:47;;;;;;;33.25;6.53;;;;;;;4.92;100.00;101772.88;5267636;28;20097;-73
2022/02/22 02:41:18;;;;;;;23.63;5.18;;;;;;;4.88;100.00;101769.59;5269284;28;20070;-73
2022/02/22 02:43:50;;;;;;;31.23;5.78;;;;;;;4.91;100.00;101773.81;5274475;28;20032;-74
2022/02/22 02:46:21;;;;;;;28.17;5.82;;;;;;;4.93;100.00;101768.56;5271702;28;20020;-74
2022/02/22 02:48:54;;;;;;;26.85;5.15;;;;;;;4.95;100.00;101774.50;5272165;28;20022;-74
2022/02/22 02:51:26;;;;;;;29.10;6.00;;;;;;;4.90;100.00;101773.88;5267179;28;20067;-73
2022/02/22 02:53:57;;;;;;;39.65;6.28;;;;;;;4.93;100.00;101758.16;5268348;28;20029;-73
2022/02/22 02:56:29;;;;;;;37.95;7.45;;;;;;;4.94;100.00;101762.44;5273799;28;20036;-73
2022/02/22 02:59:03;;;;;;;28.30;5.38;;;;;;;4.94;100.00;101768.47;5271381;28;20782;-73
2022/02/22 03:01:36;;;;;;;29.83;5.43;;;;;;;4.95;100.00;101772.75;5270532;28;20458;-73
2022/02/22 03:04:07;;;;;;;25.85;5.05;;;;;;;4.93;100.00;101776.34;5270748;28;20025;-73
2022/02/22 03:06:39;;;;;;;39.65;5.80;;;;;;;4.94;100.00;101778.88;5269380;28;20025;-73
2022/02/22 03:09:11;;;;;;;34.85;6.75;;;;;;;4.93;100.00;101782.38;5270160;28;20024;-72
2022/02/22 03:11:43;;;;;;;36.17;5.53;;;;;;;4.93;100.00;101782.38;5272041;28;20055;-75
2022/02/22 03:14:14;;;;;;;39.25;6.93;;;;;;;4.94;100.00;101780.63;5272421;28;20032;-73
2022/02/22 03:16:46;;;;;;;27.95;6.00;;;;;;;4.91;100.00;101779.00;5267525;28;20039;-72
2022/02/22 03:19:17;;;;;;;26.17;5.40;;;;;;;4.93;100.00;101786.72;5267934;28;20123;-73
2022/02/22 03:21:48;;;;;;;27.00;5.20;;;;;;;4.91;100.00;101786.78;5265951;28;20070;-73
2022/02/22 03:24:19;;;;;;;36.83;5.18;;;;;;;4.83;100.00;101776.75;5267449;28;20105;-74
2022/02/22 03:26:51;;;;;;;28.88;6.10;;;;;;;4.85;100.00;101789.69;5266020;28;20028;-73
2022/02/22 03:29:22;;;;;;;30.75;5.75;;;;;;;4.78;100.00;101777.88;5256151;28;20025;-72
2022/02/22 03:31:53;;;;;;;35.22;7.68;;;;;;;4.83;100.00;101789.72;5278817;28;20036;-74
2022/02/22 03:34:25;;;;;;;27.58;5.10;;;;;;;4.81;100.00;101783.78;5266595;28;20032;-74
2022/02/22 03:36:56;;;;;;;34.03;5.13;;;;;;;4.81;100.00;101801.09;5268990;28;20571;-72
2022/02/22 03:39:27;;;;;;;38.90;7.22;;;;;;;4.77;100.00;101808.22;5264177;28;20039;-74
2022/02/22 03:41:58;;;;;;;27.70;5.10;;;;;;;4.76;100.00;101808.25;5266043;28;20085;-73
2022/02/22 03:44:30;;;;;;;34.97;6.13;;;;;;;4.72;100.00;101799.75;5266914;28;20441;-73
2022/02/22 03:47:01;;;;;;;32.22;5.50;;;;;;;4.70;100.00;101800.72;5266075;28;20024;-71
2022/02/22 03:49:32;;;;;;;26.30;6.47;;;;;;;4.69;100.00;101796.47;5265591;28;20055;-71
2022/02/22 03:52:04;;;;;;;31.02;5.50;;;;;;;4.67;100.00;101803.50;5265146;28;20117;-71
2022/02/22 03:54:35;;;;;;;26.00;5.25;;;;;;;4.68;100.00;101794.78;5265718;28;20044;-71
2022/02/22 03:57:07;;;;;;;35.85;8.65;;;;;;;4.67;100.00;101791.34;5265021;28;20082;-71
2022/02/22 03:59:38;;;;;;;29.98;5.95;;;;;;;4.67;100.00;101785.31;5265272;28;20043;-71
2022/02/22 04:02:09;;;;;;;34.10;6.63;;;;;;;4.68;100.00;101792.19;5266386;28;20509;-72
2022/02/22 04:04:40;;;;;;;40.63;6.13;;;;;;;4.67;100.00;101790.50;5265110;28;20028;-70
2022/02/22 04:07:12;;;;;;;23.45;5.57;;;;;;;4.66;100.00;101788.81;5263928;28;20093;-72
2022/02/22 04:09:43;;;;;;;29.70;6.18;;;;;;;4.65;100.00;101785.38;5266802;28;20020;-71
2022/02/22 04:12:17;;;;;;;27.90;5.38;;;;;;;4.61;100.00;101778.63;5264333;28;20028;-73
2022/02/22 04:14:48;;;;;;;28.88;5.18;;;;;;;4.59;100.00;101780.47;5266430;28;20493;-71
2022/02/22 04:17:22;;;;;;;26.90;5.22;;;;;;;4.62;100.00;101788.97;5268452;28;20039;-71
2022/02/22 04:19:57;;;;;;;36.97;7.20;;;;;;;4.62;100.00;101793.28;5264283;28;20082;-71
2022/02/22 04:22:28;;;;;;;31.85;5.53;;;;;;;4.53;100.00;101798.91;5263799;28;20036;-71
2022/02/22 04:24:59;;;;;;;29.60;5.25;;;;;;;4.52;100.00;101789.44;5267684;28;20024;-71
2022/02/22 04:27:31;;;;;;;30.48;5.00;;;;;;;4.46;100.00;101795.72;5264800;28;20029;-71
2022/02/22 04:30:07;;;;;;;27.77;4.90;;;;;;;4.51;100.00;101803.31;5265445;28;20039;-71
2022/02/22 04:32:38;;;;;;;24.08;4.82;;;;;;;4.42;100.00;101803.72;5264718;28;20040;-71
2022/02/22 04:35:10;;;;;;;29.10;5.82;;;;;;;4.35;100.00;101792.75;5264237;28;20099;-71
2022/02/22 04:37:41;;;;;;;30.88;6.03;;;;;;;4.37;100.00;101803.94;5266178;28;20031;-71
2022/02/22 04:40:12;;;;;;;26.45;5.75;;;;;;;4.33;100.00;101808.41;5263726;28;20052;-71
2022/02/22 04:42:46;;;;;;;38.10;5.70;;;;;;;4.33;100.00;101812.75;5261243;28;20398;-71
2022/02/22 04:45:18;;;;;;;22.27;5.78;;;;;;;4.28;100.00;101807.75;5267332;28;20029;-71
2022/02/22 04:47:49;;;;;;;23.65;4.07;;;;;;;4.28;100.00;101801.72;5264420;28;20032;-71
2022/02/22 04:50:21;;;;;;;28.65;5.88;;;;;;;4.26;100.00;101798.34;5265476;28;20502;-71
2022/02/22 04:52:52;;;;;;;30.98;5.75;;;;;;;4.27;100.00;101805.22;5265933;28;20642;-71
2022/02/22 04:55:24;;;;;;;19.58;4.78;;;;;;;4.25;100.00;101807.88;5263877;28;20028;-71
2022/02/22 04:57:55;;;;;;;28.35;5.28;;;;;;;4.24;100.00;101813.97;5266017;28;20037;-71
2022/02/22 05:00:26;;;;;;;28.55;5.32;;;;;;;4.22;100.00;101814.97;5263647;28;20516;-71
2022/02/22 05:02:58;;;;;;;26.83;4.78;;;;;;;4.18;100.00;101819.44;5265678;28;20029;-72
2022/02/22 05:05:29;;;;;;;25.65;5.20;;;;;;;4.21;100.00;101810.69;5259035;28;20281;-71
2022/02/22 05:08:00;;;;;;;35.60;6.03;;;;;;;4.18;100.00;101814.25;5262710;28;20425;-72
2022/02/22 05:10:32;;;;;;;27.95;5.55;;;;;;;4.18;100.00;101816.84;5262864;28;20049;-71
2022/02/22 05:13:03;;;;;;;31.55;5.43;;;;;;;4.18;100.00;101816.84;5267855;28;20036;-71
2022/02/22 05:15:35;;;;;;;32.42;6.18;;;;;;;4.13;100.00;101800.66;5265787;28;20033;-71
2022/02/22 05:18:07;;;;;;;30.23;6.60;;;;;;;4.16;100.00;101818.63;5263042;28;20044;-71
2022/02/22 05:20:54;;;;;;;33.47;7.30;;;;;;;4.12;100.00;101825.72;5261326;28;20029;-71
2022/02/22 05:23:32;;;;;;;25.95;6.35;;;;;;;4.19;100.00;101825.47;5264319;28;20033;-71
2022/02/22 05:26:04;;;;;;;31.95;6.60;;;;;;;4.14;100.00;101821.31;5263836;28;20033;-71
2022/02/22 05:28:35;;;;;;;25.15;5.15;;;;;;;4.13;100.00;101830.00;5264432;28;20031;-71
2022/02/22 05:31:07;;;;;;;28.13;5.82;;;;;;;4.12;100.00;101825.72;5262124;28;20478;-71
2022/02/22 05:33:38;;;;;;;23.55;4.90;;;;;;;4.13;100.00;101831.75;5262446;28;20142;-71
2022/02/22 05:36:10;;;;;;;28.65;4.93;;;;;;;4.09;100.00;101828.44;5263308;28;20009;-71
2022/02/22 05:38:41;;;;;;;24.77;5.00;;;;;;;4.13;100.00;101845.56;5260769;28;20033;-71
2022/02/22 05:41:13;;;;;;;26.92;4.68;;;;;;;4.13;100.00;101849.91;5263869;28;20028;-71
2022/02/22 05:43:46;;;;;;;25.02;4.60;;;;;;;4.13;100.00;101840.38;5265960;28;20062;-71
2022/02/22 05:46:18;;;;;;;28.05;5.38;;;;;;;4.17;100.00;101829.84;5263478;28;20032;-71
2022/02/22 05:48:49;;;;;;;21.92;4.32;;;;;;;4.17;100.00;101827.25;5259439;28;20043;-71
2022/02/22 05:51:21;;;;;;;28.45;5.47;;;;;;;4.13;100.00;101830.00;5265215;28;20024;-71
2022/02/22 05:53:52;;;;;;;29.77;4.30;;;;;;;4.17;100.00;101830.72;5261297;28;20028;-71
2022/02/22 05:56:24;;;;;;;26.98;4.97;;;;;;;4.11;100.00;101834.41;5266318;28;20028;-72
2022/02/22 05:58:56;;;;;;;22.25;5.00;;;;;;;4.15;100.00;101835.97;5261384;28;20029;-71
2022/02/22 06:01:27;;;;;;;24.77;5.03;;;;;;;4.12;100.00;101827.47;5260398;28;20477;-71
2022/02/22 06:03:58;;;;;;;22.95;4.43;;;;;;;4.15;100.00;101830.78;5261381;28;20487;-71
2022/02/22 06:06:30;;;;;;;29.50;5.20;;;;;;;4.07;100.00;101824.22;5263258;28;20062;-72
2022/02/22 06:09:01;;;;;;;26.02;4.85;;;;;;;4.10;100.00;101829.28;5263855;28;20063;-71
2022/02/22 06:11:33;;;;;;;21.88;5.18;;;;;;;4.10;100.00;101830.13;5258316;28;20049;-72
2022/02/22 06:14:05;;;;;;;24.88;4.97;;;;;;;4.09;100.00;101840.56;5259008;28;20133;-71
2022/02/22 06:16:37;;;;;;;27.50;4.43;;;;;;;4.07;100.00;101844.97;5260063;28;20029;-71
2022/02/22 06:19:08;;;;;;;27.58;5.43;;;;;;;4.06;100.00;101833.75;5261116;28;20141;-73
2022/02/22 06:21:39;;;;;;;19.85;4.60;;;;;;;3.99;100.00;101827.13;5259696;28;20028;-71
2022/02/22 06:24:10;;;;;;;24.05;4.85;;;;;;;4.05;100.00;101839.88;5259292;28;20032;-71
2022/02/22 06:26:42;;;;;;;29.08;5.55;;;;;;;4.03;100.00;101831.28;5260767;28;20036;-70
2022/02/22 06:29:13;;;;;;;27.73;5.50;;;;;;;4.00;100.00;101823.63;5261060;28;20024;-71
2022/02/22 06:31:44;;;;;;;25.80;5.45;;;;;;;3.98;100.00;101820.28;5265146;28;20390;-72
2022/02/22 06:34:15;;;;;;;30.25;5.85;;;;;;;3.98;100.00;101830.66;5261585;28;20035;-72
2022/02/22 06:36:47;;;;;;;26.58;5.43;;;;;;;3.99;100.00;101828.91;5262443;28;20041;-72
2022/02/22 06:39:18;;;;;;;25.65;5.22;;;;;;;3.90;100.00;101817.13;5261655;28;20032;-73
2022/02/22 06:41:50;;;;;;;33.83;5.38;;;;;;;3.98;100.00;101829.78;5261442;28;20029;-72
2022/02/22 06:44:21;;;;;;;24.25;5.72;;;;;;;3.97;100.00;101828.09;5258087;28;20047;-71
2022/02/22 06:46:52;;;;;;;21.98;5.15;;;;;;;3.95;100.00;101824.75;5261998;28;20025;-72
2022/02/22 06:49:24;;;;;;;32.05;5.32;;;;;;;3.96;100.00;101831.59;5269371;28;20025;-70
2022/02/22 06:51:55;;;;;;;28.02;5.70;;;;;;;3.95;100.00;101828.19;5267239;28;20082;-70
2022/02/22 06:54:26;;;;;;;25.48;6.40;;;;;;;3.94;100.00;101836.88;5271817;28;20514;-72
2022/02/22 06:56:58;;;;;;;28.95;5.35;;;;;;;3.94;100.00;101830.81;5271241;28;20029;-72
2022/02/22 06:59:29;;;;;;;30.10;5.80;;;;;;;3.94;100.00;101823.03;5271988;28;20086;-71
2022/02/22 07:02:00;;;;;;;25.75;5.70;;;;;;;3.94;100.00;101823.03;5268048;28;20064;-72
2022/02/22 07:04:32;;;;;;;25.92;5.40;;;;;;;3.94;100.00;101823.03;5256279;28;20397;-72
2022/02/22 07:07:06;;;;;;;32.78;6.05;;;;;;;3.88;100.00;101806.84;5259624;28;20020;-72
2022/02/22 07:09:37;;;;;;;28.10;5.75;;;;;;;3.88;100.00;101803.41;5263710;28;20063;-72
2022/02/22 07:12:09;;;;;;;29.20;6.28;;;;;;;3.90;100.00;101812.81;5269268;28;20048;-72
2022/02/22 07:14:40;;;;;;;34.40;7.03;;;;;;;3.91;100.00;101811.06;5266166;28;20405;-71
2022/02/22 07:17:12;;;;;;;24.25;6.53;;;;;;;3.88;100.00;101808.59;5268869;28;20033;-72
2022/02/22 07:19:43;;;;;;;24.60;6.22;;;;;;;3.95;100.00;101810.03;5264640;28;20184;-73
2022/02/22 07:22:15;;;;;;;26.10;6.03;;;;;;;3.99;100.00;101811.59;5266081;28;20108;-71
2022/02/22 07:24:46;;;;;;;21.20;5.53;;;;;;;4.03;100.00;101800.19;5267561;28;20123;-72
2022/02/22 07:27:17;;;;;;;20.45;7.18;;;;;;;4.12;100.00;101804.13;5269328;28;20021;-72
2022/02/22 07:29:49;;;;;;;21.52;6.47;;;;;;;4.18;100.00;101806.47;5267919;28;20036;-72
2022/02/22 07:32:20;;;;;;;26.45;6.18;;;;;;;4.13;100.00;101796.28;5262685;28;20393;-71
2022/02/22 07:34:51;;;;;;;26.95;7.13;;;;;;;4.32;100.00;101798.09;5272153;28;20470;-72
2022/02/22 07:37:23;;;;;;;25.90;6.90;;;;;;;4.40;100.00;101806.38;5264757;28;20465;-72
2022/02/22 07:39:55;;;;;;;23.65;7.45;;;;;;;4.48;100.00;101806.91;5265710;28;20071;-72
2022/02/22 07:42:26;;;;;;;26.58;6.10;;;;;;;4.56;100.00;101803.97;5262657;28;20041;-72
2022/02/22 07:44:57;;;;;;;26.55;6.53;;;;;;;4.61;100.00;101789.84;5266674;28;20033;-75
2022/02/22 07:47:29;;;;;;;26.58;5.95;;;;;;;4.63;100.00;101782.84;5272097;28;20703;-74
2022/02/22 07:50:00;;;;;;;26.55;7.18;;;;;;;4.68;100.00;101780.03;5266302;28;20024;-75
2022/02/22 07:52:33;;;;;;;25.55;6.72;;;;;;;4.73;100.00;101774.63;5262755;28;20167;-75
2022/02/22 07:55:05;;;;;;;27.55;7.70;;;;;;;4.87;100.00;101772.25;5267026;28;20051;-74
2022/02/22 07:57:37;;;;;;;22.13;6.45;;;;;;;4.95;100.00;101769.31;5264952;28;20051;-72
2022/02/22 08:00:10;;;;;;;22.25;6.85;;;;;;;4.98;100.00;101763.97;5261805;28;20017;-72
2022/02/22 08:02:41;;;;;;;18.85;6.53;;;;;;;5.09;100.00;101764.31;5267162;28;20613;-72
2022/02/22 08:05:12;;;;;;;27.00;7.13;;;;;;;5.10;100.00;101760.81;5265062;28;20112;-72
2022/02/22 08:07:44;;;;;;;34.50;6.95;;;;;;;5.10;100.00;101750.41;5267788;28;21116;-72
2022/02/22 08:10:15;;;;;;;24.70;6.13;;;;;;;5.19;100.00;101759.53;5261156;28;20101;-72
2022/02/22 08:12:47;;;;;;;24.88;6.05;;;;;;;5.26;100.00;101760.91;5265669;28;20074;-72
2022/02/22 08:15:18;;;;;;;26.00;5.50;;;;;;;5.36;100.00;101759.56;5262701;28;20112;-73
2022/02/22 08:17:49;;;;;;;27.92;7.47;;;;;;;5.45;100.00;101746.09;5261759;28;20036;-72
2022/02/22 08:20:21;;;;;;;23.85;6.25;;;;;;;5.50;100.00;101745.91;5261573;28;20059;-72
2022/02/22 08:22:53;;;;;;;20.27;5.68;;;;;;;5.57;100.00;101745.53;5264649;28;20525;-72
2022/02/22 08:25:25;;;;;;;25.80;6.13;;;;;;;5.60;100.00;101736.72;5260665;28;20036;-72
2022/02/22 08:27:56;;;;;;;26.02;5.70;;;;;;;5.77;100.00;101747.13;5258395;28;20297;-71
2022/02/22 08:30:27;;;;;;;21.45;5.80;;;;;;;5.80;100.00;101743.56;5266068;28;20055;-72
2022/02/22 08:32:59;;;;;;;24.33;6.07;;;;;;;5.88;100.00;101733.59;5264017;28;20079;-71
2022/02/22 08:35:30;;;;;;;25.13;6.13;;;;;;;5.93;100.00;101730.78;5267036;28;20095;-74
2022/02/22 08:38:02;;;;;;;23.25;5.85;;;;;;;6.06;100.00;101739.63;5263933;28;20035;-75
2022/02/22 08:40:33;;;;;;;30.73;6.72;;;;;;;6.05;100.00;101738.78;5266424;28;20035;-75
2022/02/22 08:43:04;;;;;;;24.27;6.05;;;;;;;6.12;100.00;101733.28;5257198;28;20082;-73
2022/02/22 08:45:36;;;;;;;20.85;6.13;;;;;;;6.18;100.00;101740.78;5265234;28;20036;-74
2022/02/22 08:48:07;;;;;;;20.33;5.28;;;;;;;6.22;100.00;101726.69;5267522;28;20393;-75
2022/02/22 08:50:39;;;;;;;26.85;6.15;;;;;;;6.21;100.00;101725.84;5259624;28;20128;-72
2022/02/22 08:53:12;;;;;;;28.02;6.57;;;;;;;6.26;100.00;101726.44;5260670;28;20027;-73
2022/02/22 08:55:44;;;;;;;28.25;6.57;;;;;;;6.34;100.00;101723.44;5258199;28;20025;-71
2022/02/22 08:58:15;;;;;;;26.73;6.05;;;;;;;6.39;100.00;101726.63;5254516;28;20943;-72
2022/02/22 09:00:47;;;;;;;27.13;6.38;;;;;;;6.44;100.00;101727.25;5264402;28;20074;-72
2022/02/22 09:03:19;;;;;;;22.80;6.22;;;;;;;6.52;100.00;101725.06;5262783;28;20037;-72
2022/02/22 09:05:50;;;;;;;20.20;6.03;;;;;;;6.51;100.00;101705.13;5265793;28;20470;-72
2022/02/22 09:08:22;;;;;;;22.92;6.47;;;;;;;6.62;100.00;101707.16;5262041;28;20491;-72
2022/02/22 09:10:53;;;;;;;28.00;6.68;;;;;;;6.72;100.00;101697.09;5260994;28;20045;-72
2022/02/22 09:13:25;;;;;;;22.30;6.00;;;;;;;6.79;100.00;101690.63;5262216;28;20028;-72
2022/02/22 09:15:56;;;;;;;34.13;7.18;;;;;;;6.88;100.00;101694.47;5264259;28;20036;-73
2022/02/22 09:18:27;;;;;;;28.17;6.25;;;;;;;6.92;100.00;101681.19;5259598;28;20016;-73
2022/02/22 09:20:59;;;;;;;25.60;6.38;;;;;;;6.94;100.00;101671.53;5260213;28;20040;-72
2022/02/22 09:23:30;;;;;;;28.58;6.53;;;;;;;7.00;100.00;101663.34;5261047;28;20433;-73
2022/02/22 09:26:02;;;;;;;23.67;6.72;;;;;;;7.07;100.00;101671.66;5265390;28;20047;-72
2022/02/22 09:28:33;;;;;;;22.33;6.47;;;;;;;7.09;100.00;101662.00;5258502;28;20027;-72
2022/02/22 09:31:04;;;;;;;24.48;6.07;;;;;;;7.17;100.00;101661.56;5262776;28;20378;-73
2022/02/22 09:33:36;;;;;;;29.42;6.88;;;;;;;7.20;100.00;101649.22;5263931;28;20019;-72
2022/02/22 09:36:08;;;;;;;22.35;5.68;;;;;;;7.24;100.00;101639.44;5260989;28;20716;-72
2022/02/22 09:38:39;;;;;;;30.08;6.95;;;;;;;7.23;100.00;101638.59;5261510;28;20598;-72
2022/02/22 09:41:11;;;;;;;23.75;6.63;;;;;;;7.30;100.00;101639.06;5246821;28;20113;-74
2022/02/22 09:43:42;;;;;;;33.00;7.18;;;;;;;7.28;100.00;101641.78;5256247;28;20828;-72
2022/02/22 09:46:14;;;;;;;27.42;6.35;;;;;;;7.32;100.00;101643.28;5262395;28;20044;-72
2022/02/22 09:48:45;;;;;;;24.38;5.30;;;;;;;7.29;100.00;101648.66;5258392;28;20699;-72
2022/02/22 09:51:17;;;;;;;23.80;6.10;;;;;;;7.37;100.00;101660.41;5261095;28;20094;-73
2022/02/22 09:53:48;;;;;;;27.17;7.03;;;;;;;7.39;100.00;101654.19;5259605;28;20425;-72
2022/02/22 09:56:26;;;;;;;24.48;6.43;;;;;;;7.41;100.00;101656.69;5265446;28;20465;-71
2022/02/22 09:58:58;;;;;;;24.95;5.88;;;;;;;7.44;100.00;101659.97;5258492;28;20036;-72
2022/02/22 10:01:38;;;;;;;28.60;7.32;;;;;;;7.50;100.00;101663.97;5262213;28;20025;-73
2022/02/22 10:04:10;;;;;;;20.75;5.60;;;;;;;7.50;100.00;101669.19;5265776;28;20021;-73
2022/02/22 10:06:41;;;;;;;28.60;6.95;;;;;;;7.52;100.00;101689.03;5255496;28;20029;-72
2022/02/22 10:09:13;;;;;;;30.40;6.78;;;;;;;7.54;100.00;101689.81;5255066;28;20221;-73
2022/02/22 10:11:50;;;;;;;30.83;7.45;;;;;;;7.64;100.00;101684.88;5259577;28;20071;-72
2022/02/22 10:14:27;;;;;;;27.67;6.93;;;;;;;7.73;100.00;101678.28;5261000;28;20087;-72
2022/02/22 10:16:58;;;;;;;25.13;6.55;;;;;;;7.62;100.00;101652.00;5260068;28;20104;-71
2022/02/22 10:19:34;;;;;;;26.77;7.20;;;;;;;7.74;100.00;101664.31;5261287;28;20028;-73
2022/02/22 10:22:09;;;;;;;27.20;6.75;;;;;;;7.72;100.00;101660.94;5258693;28;20050;-71
2022/02/22 10:24:40;;;;;;;27.75;6.60;;;;;;;7.71;100.00;101638.41;5265629;28;20055;-73
2022/02/22 10:27:12;;;;;;;25.48;7.50;;;;;;;7.77;100.00;101630.22;5270198;28;20024;-73
2022/02/22 10:29:43;;;;;;;27.67;6.63;;;;;;;7.88;100.00;101617.38;5261416;28;20071;-71
2022/02/22 10:32:16;;;;;;;29.02;7.88;;;;;;;7.99;100.00;101609.72;5269933;28;20021;-72
2022/02/22 10:34:48;;;;;;;23.02;6.30;;;;;;;8.15;100.00;101599.16;5264955;28;20048;-73
2022/02/22 10:37:30;;;;;;;30.75;7.13;;;;;;;8.21;100.00;101601.38;5264668;28;20700;-71
2022/02/22 10:40:03;;;;;;;31.88;7.28;;;;;;;8.19;100.00;101577.16;5262630;28;20032;-72
2022/02/22 10:42:37;;;;;;;25.40;8.23;;;;;;;8.24;100.00;101595.97;5256368;28;20630;-72
2022/02/22 10:45:10;;;;;;;32.28;7.82;;;;;;;8.36;100.00;101585.69;5267375;28;20540;-71
2022/02/22 10:47:41;;;;;;;28.42;7.45;;;;;;;8.43;100.00;101579.16;5264336;28;20044;-71
2022/02/22 10:50:13;;;;;;;33.25;7.35;;;;;;;8.38;100.00;101579.47;5266553;28;20107;-71
2022/02/22 10:52:45;;;;;;;24.58;6.43;;;;;;;8.51;100.00;101584.72;5265276;28;20051;-71
2022/02/22 10:55:16;;;;;;;35.22;7.35;;;;;;;8.51;100.00;101571.66;5260253;28;20490;-72
2022/02/22 10:57:49;;;;;;;32.25;6.60;;;;;;;8.50;100.00;101576.06;5263513;28;20600;-72
2022/02/22 11:00:20;;;;;;;34.33;7.63;;;;;;;8.46;100.00;101579.81;5262406;28;20051;-72
2022/02/22 11:02:52;;;;;;;32.50;9.00;;;;;;;8.51;100.00;101582.13;5264248;28;20028;-73
2022/02/22 11:05:23;;;;;;;36.70;7.95;;;;;;;8.46;100.00;101585.03;5265900;28;20100;-72
2022/02/22 11:07:54;;;;;;;40.55;9.57;;;;;;;8.39;100.00;101588.97;5268568;28;20156;-73
2022/02/22 11:10:29;;;;;;;31.55;7.90;;;;;;;8.32;100.00;101599.88;5265901;28;20080;-72
2022/02/22 11:13:01;;;;;;;34.40;8.98;;;;;;;8.24;100.00;101602.97;5268337;28;20035;-72
2022/02/22 11:15:36;;;;;;;33.13;7.70;;;;;;;8.18;100.00;101595.50;5267967;28;20032;-73
2022/02/22 11:18:19;;;;;;;39.83;8.88;;;;;;;8.29;100.00;101593.06;5263975;28;20464;-72
2022/02/22 11:20:51;;;;;;;30.52;8.02;;;;;;;8.17;100.00;101591.22;5264567;28;20111;-72
2022/02/22 11:23:28;;;;;;;37.22;8.43;;;;;;;8.18;100.00;101585.91;5263162;28;20112;-73
2022/02/22 11:26:09;;;;;;;36.15;8.30;;;;;;;8.27;100.00;101584.50;5265924;28;20043;-72
2022/02/22 11:28:43;;;;;;;40.75;8.63;;;;;;;8.22;100.00;101579.56;5264600;28;20521;-72
2022/02/22 11:31:19;;;;;;;38.90;8.80;;;;;;;8.13;100.00;101561.03;5263623;28;20515;-73
2022/02/22 11:33:51;;;;;;;32.80;7.78;;;;;;;8.10;100.00;101551.59;5263214;28;20433;-73
2022/02/22 11:36:31;;;;;;;37.47;7.50;;;;;;;8.21;100.00;101550.94;5264664;28;20024;-73
2022/02/22 11:39:06;;;;;;;36.55;7.75;;;;;;;8.23;100.00;101562.97;5265339;28;20040;-73